createdAt,value
2017-12-05T00:00:55.474Z,96.10
2017-12-05T00:03:23.076Z,96.20
2017-12-05T00:05:50.697Z,96.40
2017-12-05T00:08:19.280Z,97.30
2017-12-05T00:10:46.904Z,97.30
2017-12-05T00:13:15.294Z,97.50
2017-12-05T00:15:42.958Z,97.50
2017-12-05T00:18:10.589Z,96.60
2017-12-05T00:20:38.382Z,96.40
2017-12-05T00:23:06.050Z,97.00
2017-12-05T00:25:33.666Z,97.30
2017-12-05T00:28:01.287Z,97.40
2017-12-05T00:30:28.953Z,96.80
2017-12-05T00:32:56.564Z,97.60
2017-12-05T00:35:24.222Z,97.90
2017-12-05T00:37:51.837Z,97.60
2017-12-05T00:40:20.221Z,98.40
2017-12-05T00:42:47.939Z,98.40
2017-12-05T00:45:15.569Z,98.20
2017-12-05T00:47:43.280Z,98.10
2017-12-05T00:50:10.909Z,98.70
2017-12-05T00:52:38.819Z,98.60
2017-12-05T00:55:06.474Z,98.70
2017-12-05T00:57:34.105Z,98.20
2017-12-05T01:00:01.775Z,98.30
2017-12-05T01:02:29.566Z,98.80
2017-12-05T01:04:57.199Z,98.90
2017-12-05T01:07:24.846Z,99.00
2017-12-05T01:09:52.450Z,99.00
2017-12-05T01:12:20.104Z,99.10
2017-12-05T01:14:47.851Z,99.30
2017-12-05T01:17:15.481Z,99.60
2017-12-05T01:19:43.142Z,99.20
2017-12-05T01:22:10.758Z,99.40
2017-12-05T01:24:38.728Z,99.50
2017-12-05T01:27:06.338Z,99.60
2017-12-05T01:29:33.971Z,99.40
2017-12-05T01:32:01.635Z,99.30
2017-12-05T01:34:29.742Z,99.30
2017-12-05T01:36:57.396Z,99.80
2017-12-05T01:39:25.778Z,99.90
2017-12-05T01:41:54.171Z,99.70
2017-12-05T01:44:21.842Z,99.70
2017-12-05T01:46:49.582Z,99.90
2017-12-05T01:49:17.318Z,99.90
2017-12-05T01:51:45.087Z,99.90
2017-12-05T01:54:13.550Z,99.90
2017-12-05T01:56:41.205Z,99.90
2017-12-05T01:59:08.874Z,99.90
2017-12-05T02:01:36.549Z,99.90
2017-12-05T02:04:04.195Z,99.90
2017-12-05T02:06:32.235Z,99.90
2017-12-05T02:09:00.661Z,99.90
2017-12-05T02:11:28.386Z,99.90
2017-12-05T02:13:56.081Z,99.90
2017-12-05T02:16:23.719Z,99.90
2017-12-05T02:18:51.594Z,99.90
2017-12-05T02:21:20.024Z,99.90
2017-12-05T02:23:47.768Z,99.90
2017-12-05T02:26:15.529Z,99.90
2017-12-05T02:28:43.175Z,99.90
2017-12-05T02:31:10.827Z,99.90
2017-12-05T02:33:39.491Z,99.90
2017-12-05T02:36:07.178Z,99.90
2017-12-05T02:38:34.871Z,99.90
2017-12-05T02:41:10.253Z,99.90
2017-12-05T02:43:37.910Z,99.90
2017-12-05T02:46:05.553Z,99.90
2017-12-05T02:48:33.181Z,99.90
2017-12-05T02:51:01.629Z,99.90
2017-12-05T02:53:29.534Z,99.90
2017-12-05T02:55:57.207Z,99.90
2017-12-05T02:58:24.919Z,99.90
2017-12-05T03:00:52.550Z,99.90
2017-12-05T03:03:20.235Z,99.90
2017-12-05T03:05:47.886Z,99.90
2017-12-05T03:08:15.558Z,99.90
2017-12-05T03:10:43.198Z,99.90
2017-12-05T03:13:10.853Z,99.90
2017-12-05T03:15:38.786Z,99.90
2017-12-05T03:18:06.422Z,99.90
2017-12-05T03:20:34.087Z,99.90
2017-12-05T03:23:01.716Z,99.90
2017-12-05T03:25:29.431Z,99.90
2017-12-05T03:27:57.891Z,99.90
2017-12-05T03:30:26.284Z,99.90
2017-12-05T03:32:53.954Z,99.90
2017-12-05T03:35:21.569Z,99.90
2017-12-05T03:37:49.409Z,99.90
2017-12-05T03:40:17.069Z,99.90
2017-12-05T03:42:44.683Z,99.90
2017-12-05T03:45:13.110Z,99.90
2017-12-05T03:47:40.747Z,99.90
2017-12-05T03:50:08.417Z,99.90
2017-12-05T03:52:36.077Z,99.90
2017-12-05T03:55:03.775Z,99.90
2017-12-05T03:57:31.454Z,99.90
2017-12-05T03:59:59.114Z,99.90
2017-12-05T04:02:26.764Z,99.90
2017-12-05T04:04:54.450Z,99.90
2017-12-05T04:07:22.077Z,99.90
2017-12-05T04:09:50.453Z,99.90
2017-12-05T04:12:18.327Z,99.90
2017-12-05T04:14:45.957Z,99.90
2017-12-05T04:17:13.620Z,99.90
2017-12-05T04:19:41.238Z,99.90
2017-12-05T04:22:09.788Z,99.90
2017-12-05T04:24:37.444Z,99.90
2017-12-05T04:27:05.823Z,99.90
2017-12-05T04:29:33.487Z,99.90
2017-12-05T04:32:01.107Z,99.90
2017-12-05T04:34:28.810Z,99.90
2017-12-05T04:36:56.481Z,99.90
2017-12-05T04:39:24.087Z,99.90
2017-12-05T04:41:51.738Z,99.90
2017-12-05T04:44:19.417Z,99.90
2017-12-05T04:46:47.049Z,99.90
2017-12-05T04:49:14.702Z,99.90
2017-12-05T04:51:42.331Z,99.90
2017-12-05T04:54:09.984Z,99.90
2017-12-05T04:56:37.620Z,99.90
2017-12-05T04:59:05.363Z,99.90
2017-12-05T05:01:33.026Z,99.90
2017-12-05T05:04:00.657Z,99.90
2017-12-05T05:06:28.370Z,99.90
2017-12-05T05:08:55.988Z,99.90
2017-12-05T05:11:23.624Z,99.90
2017-12-05T05:13:51.337Z,99.90
2017-12-05T05:16:18.973Z,99.90
2017-12-05T05:18:46.630Z,99.90
2017-12-05T05:21:14.247Z,99.90
2017-12-05T05:23:42.656Z,99.90
2017-12-05T05:26:10.359Z,99.90
2017-12-05T05:28:38.243Z,99.90
2017-12-05T05:31:05.893Z,99.90
2017-12-05T05:33:33.514Z,99.90
2017-12-05T05:36:01.130Z,99.90
2017-12-05T05:38:29.648Z,99.90
2017-12-05T05:40:57.270Z,99.90
2017-12-05T05:43:24.913Z,99.90
2017-12-05T05:45:52.532Z,99.90
2017-12-05T05:48:20.182Z,99.90
2017-12-05T05:50:47.885Z,99.90
2017-12-05T05:53:15.532Z,99.90
2017-12-05T05:55:43.181Z,99.90
2017-12-05T05:58:10.797Z,99.90
2017-12-05T06:00:38.747Z,99.90
2017-12-05T06:03:06.400Z,99.90
2017-12-05T06:05:34.035Z,99.90
2017-12-05T06:08:02.446Z,99.90
2017-12-05T06:10:30.154Z,99.90
2017-12-05T06:12:57.932Z,99.90
2017-12-05T06:15:25.574Z,99.90
2017-12-05T06:17:53.195Z,99.90
2017-12-05T06:20:20.855Z,99.90
2017-12-05T06:22:48.762Z,99.90
2017-12-05T06:25:16.382Z,99.90
2017-12-05T06:27:44.049Z,99.90
2017-12-05T06:30:11.683Z,99.90
2017-12-05T06:32:39.349Z,99.90
2017-12-05T06:35:06.980Z,99.90
2017-12-05T06:37:34.606Z,99.90
2017-12-05T06:40:02.270Z,99.90
2017-12-05T06:42:29.905Z,99.90
2017-12-05T06:44:57.801Z,99.90
2017-12-05T06:47:26.215Z,99.90
2017-12-05T06:49:53.833Z,99.90
2017-12-05T06:52:21.486Z,99.90
2017-12-05T06:54:49.265Z,99.90
2017-12-05T06:57:16.917Z,99.90
2017-12-05T06:59:44.535Z,99.90
2017-12-05T07:02:12.153Z,99.90
2017-12-05T07:04:40.592Z,99.90
2017-12-05T07:07:08.286Z,99.90
2017-12-05T07:09:35.938Z,99.90
2017-12-05T07:12:03.580Z,99.90
2017-12-05T07:14:31.217Z,99.90
2017-12-05T07:16:58.887Z,99.90
2017-12-05T07:19:26.511Z,99.90
2017-12-05T07:21:54.171Z,99.90
2017-12-05T07:24:21.793Z,99.90
2017-12-05T07:26:50.181Z,99.90
2017-12-05T07:29:17.866Z,99.90
2017-12-05T07:31:46.287Z,99.90
2017-12-05T07:34:13.953Z,99.90
2017-12-05T07:36:41.592Z,99.90
2017-12-05T07:39:09.395Z,99.90
2017-12-05T07:41:37.840Z,99.90
2017-12-05T07:44:05.465Z,99.90
2017-12-05T07:46:33.126Z,99.90
2017-12-05T07:49:00.767Z,99.90
2017-12-05T07:51:28.953Z,99.90
2017-12-05T07:53:56.602Z,99.90
2017-12-05T07:56:24.232Z,99.90
2017-12-05T07:58:51.886Z,99.90
2017-12-05T08:01:19.717Z,99.90
2017-12-05T08:03:47.334Z,99.90
2017-12-05T08:06:14.986Z,99.90
2017-12-05T08:08:42.602Z,99.90
2017-12-05T08:11:11.018Z,99.90
2017-12-05T08:13:38.702Z,99.90
2017-12-05T08:16:07.100Z,99.90
2017-12-05T08:18:34.756Z,99.90
2017-12-05T08:21:02.370Z,99.90
2017-12-05T08:23:30.789Z,99.90
2017-12-05T08:25:58.589Z,99.90
2017-12-05T08:28:26.977Z,99.90
2017-12-05T08:30:54.678Z,99.90
2017-12-05T08:33:22.306Z,99.90
2017-12-05T08:35:49.951Z,99.90
2017-12-05T08:38:17.571Z,99.90
2017-12-05T08:40:45.182Z,99.90
2017-12-05T08:43:13.602Z,99.90
2017-12-05T08:45:41.222Z,99.90
2017-12-05T08:48:08.975Z,99.90
2017-12-05T08:50:36.589Z,99.90
2017-12-05T08:53:04.978Z,99.90
2017-12-05T08:55:32.638Z,99.90
2017-12-05T08:58:00.268Z,99.90
2017-12-05T09:00:27.916Z,99.90
2017-12-05T09:02:55.531Z,99.90
2017-12-05T09:05:23.952Z,99.90
2017-12-05T09:07:51.573Z,99.90
2017-12-05T09:10:19.311Z,99.90
2017-12-05T09:12:46.958Z,99.90
2017-12-05T09:15:14.575Z,99.90
2017-12-05T09:17:42.257Z,99.90
2017-12-05T09:20:09.883Z,99.90
2017-12-05T09:22:38.368Z,99.90
2017-12-05T09:25:06.040Z,99.90
2017-12-05T09:27:33.653Z,99.90
2017-12-05T09:30:01.306Z,99.90
2017-12-05T09:32:28.941Z,99.90
2017-12-05T09:34:57.329Z,99.90
2017-12-05T09:37:24.990Z,99.90
2017-12-05T09:39:52.618Z,99.90
2017-12-05T09:42:20.266Z,99.90
2017-12-05T09:44:47.902Z,99.90
2017-12-05T09:47:15.524Z,99.90
2017-12-05T09:49:43.939Z,99.90
2017-12-05T09:52:11.603Z,99.90
2017-12-05T09:54:39.370Z,99.90
2017-12-05T09:57:07.011Z,99.90
2017-12-05T09:59:34.635Z,99.90
2017-12-05T10:02:02.311Z,99.90
2017-12-05T10:04:29.934Z,99.90
2017-12-05T10:06:57.611Z,99.90
2017-12-05T10:09:25.782Z,99.90
2017-12-05T10:11:54.187Z,99.90
2017-12-05T10:14:21.851Z,99.90
2017-12-05T10:16:49.493Z,99.90
2017-12-05T10:19:17.146Z,99.90
2017-12-05T10:21:44.766Z,99.90
2017-12-05T10:24:12.377Z,99.90
2017-12-05T10:26:40.059Z,99.90
2017-12-05T10:29:07.740Z,99.90
2017-12-05T10:31:35.411Z,99.90
2017-12-05T10:34:03.028Z,99.90
2017-12-05T10:36:30.659Z,99.90
2017-12-05T10:38:58.370Z,99.90
2017-12-05T10:41:25.997Z,99.90
2017-12-05T10:43:53.658Z,99.90
2017-12-05T10:46:22.042Z,99.90
2017-12-05T10:48:49.797Z,99.90
2017-12-05T10:51:17.470Z,99.90
2017-12-05T10:53:45.889Z,99.90
2017-12-05T10:56:13.570Z,99.90
2017-12-05T10:58:41.200Z,99.90
2017-12-05T11:01:08.822Z,99.90
2017-12-05T11:03:37.252Z,99.90
2017-12-05T11:06:04.870Z,99.90
2017-12-05T11:08:32.519Z,99.90
2017-12-05T11:11:00.202Z,99.90
2017-12-05T11:13:27.826Z,99.90
2017-12-05T11:15:55.479Z,99.90
2017-12-05T11:18:23.102Z,99.90
2017-12-05T11:20:50.731Z,99.90
2017-12-05T11:23:18.599Z,99.90
2017-12-05T11:25:46.229Z,99.90
2017-12-05T11:28:13.847Z,99.90
2017-12-05T11:30:42.258Z,99.90
2017-12-05T11:33:09.930Z,99.90
2017-12-05T11:35:37.552Z,99.90
2017-12-05T11:38:05.214Z,99.90
2017-12-05T11:40:32.837Z,99.90
2017-12-05T11:43:00.463Z,99.90
2017-12-05T11:45:28.505Z,99.90
2017-12-05T11:47:56.892Z,99.90
2017-12-05T11:50:24.545Z,99.90
2017-12-05T11:52:52.166Z,99.90
2017-12-05T11:55:20.554Z,99.90
2017-12-05T11:57:48.370Z,99.90
2017-12-05T12:00:16.750Z,99.90
2017-12-05T12:02:44.402Z,99.90
2017-12-05T12:05:12.014Z,99.90
2017-12-05T12:07:39.682Z,99.90
2017-12-05T12:10:08.233Z,99.90
2017-12-05T12:12:35.862Z,99.90
2017-12-05T12:15:03.509Z,99.90
2017-12-05T12:17:31.135Z,99.90
2017-12-05T12:19:58.769Z,99.90
2017-12-05T12:22:26.433Z,99.90
2017-12-05T12:24:54.062Z,99.90
2017-12-05T12:27:21.734Z,99.90
2017-12-05T12:29:49.393Z,99.90
2017-12-05T12:32:17.030Z,99.90
2017-12-05T12:34:44.690Z,99.90
2017-12-05T12:37:12.321Z,99.90
2017-12-05T12:39:39.981Z,99.90
2017-12-05T12:42:07.838Z,99.90
2017-12-05T12:44:35.454Z,99.90
2017-12-05T12:47:03.108Z,99.90
2017-12-05T12:49:30.740Z,99.90
2017-12-05T12:51:58.412Z,99.90
2017-12-05T12:54:26.035Z,99.90
2017-12-05T12:56:53.658Z,99.90
2017-12-05T12:59:21.357Z,99.90
2017-12-05T13:01:49.000Z,99.90
2017-12-05T13:04:16.657Z,99.90
2017-12-05T13:06:44.278Z,99.90
2017-12-05T13:09:11.914Z,99.90
2017-12-05T13:11:39.754Z,99.90
2017-12-05T13:14:07.452Z,99.90
2017-12-05T13:16:35.110Z,99.90
2017-12-05T13:19:02.748Z,99.90
2017-12-05T13:21:30.365Z,99.90
2017-12-05T13:23:58.073Z,99.90
2017-12-05T13:26:25.689Z,99.90
2017-12-05T13:28:53.344Z,99.90
2017-12-05T13:31:20.976Z,99.90
2017-12-05T13:33:48.786Z,99.90
2017-12-05T13:36:16.487Z,99.90
2017-12-05T13:38:44.878Z,99.90
2017-12-05T13:41:12.539Z,99.90
2017-12-05T13:43:40.157Z,99.90
2017-12-05T13:46:07.842Z,99.90
2017-12-05T13:48:35.499Z,99.90
2017-12-05T13:51:03.130Z,99.90
2017-12-05T13:53:30.782Z,99.90
2017-12-05T13:55:58.622Z,99.90
2017-12-05T13:58:26.253Z,99.90
2017-12-05T14:00:53.907Z,99.90
2017-12-05T14:03:21.533Z,99.90
2017-12-05T14:05:49.950Z,99.90
2017-12-05T14:08:17.578Z,99.90
2017-12-05T14:10:45.210Z,99.90
2017-12-05T14:13:12.866Z,99.90
2017-12-05T14:15:40.482Z,99.90
2017-12-05T14:18:08.292Z,99.90
2017-12-05T14:20:35.972Z,99.90
2017-12-05T14:23:03.570Z,99.90
2017-12-05T14:25:31.279Z,99.90
2017-12-05T14:27:58.914Z,99.90
2017-12-05T14:30:27.336Z,99.90
2017-12-05T14:32:54.966Z,99.90
2017-12-05T14:35:22.612Z,99.90
2017-12-05T14:37:50.274Z,99.90
2017-12-05T14:40:17.891Z,99.90
2017-12-05T14:42:45.553Z,99.90
2017-12-05T14:45:13.169Z,99.90
2017-12-05T14:47:40.785Z,99.90
2017-12-05T14:50:08.598Z,99.90
2017-12-05T14:52:36.231Z,99.90
2017-12-05T14:55:03.887Z,99.90
2017-12-05T14:57:31.524Z,99.90
2017-12-05T14:59:59.810Z,99.90
2017-12-05T15:02:27.454Z,99.90
2017-12-05T15:04:55.086Z,99.90
2017-12-05T15:07:22.731Z,99.90
2017-12-05T15:09:50.358Z,99.90
2017-12-05T15:12:18.066Z,99.90
2017-12-05T15:14:45.713Z,99.90
2017-12-05T15:17:13.331Z,99.90
2017-12-05T15:19:40.982Z,99.90
2017-12-05T15:22:08.714Z,99.90
2017-12-05T15:24:36.338Z,99.90
2017-12-05T15:27:03.997Z,99.90
2017-12-05T15:29:31.616Z,99.90
2017-12-05T15:32:00.030Z,99.90
2017-12-05T15:34:28.012Z,99.90
2017-12-05T15:36:55.643Z,99.90
2017-12-05T15:39:23.297Z,99.90
2017-12-05T15:41:50.917Z,99.90
2017-12-05T15:44:18.730Z,99.90
2017-12-05T15:46:47.123Z,99.90
2017-12-05T15:49:14.738Z,99.90
2017-12-05T15:51:43.157Z,99.90
2017-12-05T15:54:10.780Z,99.90
2017-12-05T15:56:38.572Z,99.90
2017-12-05T15:59:06.204Z,99.90
2017-12-05T16:01:33.902Z,99.90
2017-12-05T16:04:01.572Z,99.90
2017-12-05T16:06:29.377Z,99.90
2017-12-05T16:08:57.785Z,99.90
2017-12-05T16:11:25.421Z,99.90
2017-12-05T16:13:53.070Z,99.90
2017-12-05T16:16:20.728Z,99.90
2017-12-05T16:18:48.398Z,99.90
2017-12-05T16:21:16.051Z,99.90
2017-12-05T16:23:43.678Z,99.90
2017-12-05T16:26:11.336Z,99.90
2017-12-05T16:28:38.963Z,99.90
2017-12-05T16:31:06.578Z,99.90
2017-12-05T16:33:34.239Z,99.90
2017-12-05T16:36:01.910Z,99.90
2017-12-05T16:38:29.690Z,99.90
2017-12-05T16:40:57.314Z,99.90
2017-12-05T16:43:24.928Z,99.90
2017-12-05T16:45:52.581Z,99.90
2017-12-05T16:48:20.210Z,99.90
2017-12-05T16:50:48.605Z,99.90
2017-12-05T16:53:16.227Z,99.90
2017-12-05T16:55:43.849Z,99.90
2017-12-05T16:58:12.277Z,99.90
2017-12-05T17:00:39.898Z,99.90
2017-12-05T17:03:07.564Z,99.90
2017-12-05T17:05:36.001Z,99.90
2017-12-05T17:08:03.629Z,99.90
2017-12-05T17:10:31.281Z,99.90
2017-12-05T17:12:58.898Z,99.90
2017-12-05T17:15:26.544Z,99.90
2017-12-05T17:17:54.165Z,99.90
2017-12-05T17:20:21.789Z,99.90
2017-12-05T17:22:49.481Z,99.90
2017-12-05T17:25:18.593Z,99.90
2017-12-05T17:27:46.246Z,99.90
2017-12-05T17:30:15.556Z,99.90
2017-12-05T17:32:43.218Z,99.90
2017-12-05T17:35:10.912Z,99.90
2017-12-05T17:37:38.619Z,99.90
2017-12-05T17:40:06.658Z,99.90
2017-12-05T17:42:34.367Z,99.90
2017-12-05T17:45:01.989Z,99.90
2017-12-05T17:47:29.653Z,99.90
2017-12-05T17:49:58.075Z,99.90
2017-12-05T17:52:25.786Z,99.90
2017-12-05T17:54:54.833Z,99.80
2017-12-05T17:57:22.487Z,99.40
2017-12-05T17:59:51.646Z,98.80
2017-12-05T18:02:19.348Z,98.90
2017-12-05T18:04:47.048Z,98.80
2017-12-05T18:07:14.671Z,98.50
2017-12-05T18:09:42.376Z,97.90
2017-12-05T18:12:10.040Z,97.90
2017-12-05T18:14:37.703Z,97.50
2017-12-05T18:17:05.538Z,98.40
2017-12-05T18:19:33.225Z,97.80
2017-12-05T18:22:00.882Z,97.00
2017-12-05T18:24:28.691Z,97.30
2017-12-05T18:26:56.314Z,96.50
2017-12-05T18:29:24.473Z,96.20
2017-12-05T18:31:52.626Z,97.00
2017-12-05T18:34:20.266Z,97.10
2017-12-05T18:36:48.784Z,96.50
2017-12-05T18:39:16.418Z,96.40
2017-12-05T18:41:44.099Z,95.10
2017-12-05T18:44:11.717Z,96.60
2017-12-05T18:46:39.394Z,96.90
2017-12-05T18:49:07.042Z,97.20
2017-12-05T18:51:34.676Z,96.40
2017-12-05T18:54:02.349Z,95.50
2017-12-05T18:56:30.773Z,96.50
2017-12-05T18:58:58.430Z,96.50
2017-12-05T19:01:27.560Z,95.30
2017-12-05T19:03:55.193Z,96.70
2017-12-05T19:06:23.648Z,94.50
2017-12-05T19:08:52.081Z,95.20
2017-12-05T19:11:20.502Z,95.10
2017-12-05T19:13:48.645Z,94.30
2017-12-05T19:16:17.066Z,95.30
2017-12-05T19:18:44.725Z,95.20
2017-12-05T19:21:12.347Z,95.00
2017-12-05T19:23:39.963Z,96.20
2017-12-05T19:26:07.730Z,94.90
2017-12-05T19:28:36.394Z,94.90
2017-12-05T19:31:04.484Z,94.20
2017-12-05T19:33:32.940Z,94.60
2017-12-05T19:36:00.602Z,94.60
2017-12-05T19:38:28.285Z,94.00
2017-12-05T19:40:56.678Z,93.10
2017-12-05T19:43:24.380Z,93.10
2017-12-05T19:45:52.003Z,94.10
2017-12-05T19:48:19.742Z,94.40
2017-12-05T19:50:47.417Z,93.60
2017-12-05T19:53:15.038Z,94.80
2017-12-05T19:55:42.718Z,94.10
2017-12-05T19:58:11.151Z,93.40
2017-12-05T20:00:38.826Z,93.50
2017-12-05T20:03:06.576Z,93.50
2017-12-05T20:05:34.223Z,93.50
2017-12-05T20:08:01.890Z,93.80
2017-12-05T20:10:30.285Z,92.20
2017-12-05T20:12:57.925Z,92.20
2017-12-05T20:15:25.636Z,93.20
2017-12-05T20:17:54.026Z,93.10
2017-12-05T20:20:21.689Z,93.10
2017-12-05T20:22:49.423Z,91.60
2017-12-05T20:25:17.058Z,91.60
2017-12-05T20:27:45.477Z,92.20
2017-12-05T20:30:13.095Z,92.30
2017-12-05T20:32:40.756Z,92.10
2017-12-05T20:35:08.649Z,93.30
2017-12-05T20:37:36.292Z,91.80
2017-12-05T20:40:04.007Z,91.70
2017-12-05T20:42:31.632Z,92.20
2017-12-05T20:44:59.397Z,92.30
2017-12-05T20:47:27.010Z,91.40
2017-12-05T20:49:54.645Z,90.40
2017-12-05T20:52:23.053Z,89.60
2017-12-05T20:54:50.711Z,89.60
2017-12-05T20:57:18.377Z,90.20
2017-12-05T20:59:46.106Z,89.80
2017-12-05T21:02:13.736Z,90.70
2017-12-05T21:04:41.385Z,89.10
2017-12-05T21:07:09.009Z,90.40
2017-12-05T21:09:36.665Z,89.20
2017-12-05T21:12:04.326Z,88.20
2017-12-05T21:14:31.973Z,89.10
2017-12-05T21:16:59.867Z,89.50
2017-12-05T21:19:29.734Z,89.10
2017-12-05T21:21:58.743Z,89.50
2017-12-05T21:24:26.478Z,88.50
2017-12-05T21:26:54.109Z,91.20
2017-12-05T21:29:21.994Z,88.90
2017-12-05T21:31:50.392Z,87.60
2017-12-05T21:34:21.528Z,88.00
2017-12-05T21:36:49.636Z,89.00
2017-12-05T21:39:17.276Z,88.70
2017-12-05T21:41:44.953Z,88.10
2017-12-05T21:44:13.445Z,87.40
2017-12-05T21:46:41.171Z,87.40
2017-12-05T21:49:08.887Z,86.20
2017-12-05T21:51:36.505Z,87.90
2017-12-05T21:54:04.218Z,87.50
2017-12-05T21:56:32.363Z,87.60
2017-12-05T21:59:00.764Z,88.20
2017-12-05T22:01:28.459Z,88.20
2017-12-05T22:03:56.116Z,88.10
2017-12-05T22:06:24.555Z,87.10
2017-12-05T22:08:52.188Z,87.00
2017-12-05T22:11:19.867Z,87.40
2017-12-05T22:13:47.547Z,87.10
2017-12-05T22:16:15.190Z,87.70
2017-12-05T22:18:42.839Z,87.70
2017-12-05T22:21:10.490Z,88.30
2017-12-05T22:23:38.222Z,87.40
2017-12-05T22:26:06.608Z,86.10
2017-12-05T22:28:34.337Z,86.00
2017-12-05T22:31:02.717Z,86.40
2017-12-05T22:33:30.401Z,86.10
2017-12-05T22:35:58.170Z,85.80
2017-12-05T22:38:25.924Z,86.30
2017-12-05T22:40:53.556Z,84.50
2017-12-05T22:43:21.220Z,85.20
2017-12-05T22:45:48.851Z,84.60
2017-12-05T22:48:16.514Z,85.40
2017-12-05T22:50:44.171Z,84.50
2017-12-05T22:53:12.581Z,84.50
2017-12-05T22:55:40.247Z,84.20
2017-12-05T22:58:07.871Z,84.30
2017-12-05T23:00:35.497Z,83.00
2017-12-05T23:03:03.155Z,83.60
2017-12-05T23:05:30.792Z,84.80
2017-12-05T23:07:58.625Z,83.30
2017-12-05T23:10:27.010Z,82.90
2017-12-05T23:12:54.655Z,82.90
2017-12-05T23:15:22.303Z,82.10
2017-12-05T23:17:49.934Z,82.70
2017-12-05T23:20:17.922Z,83.90
2017-12-05T23:22:45.561Z,82.90
2017-12-05T23:25:13.214Z,82.80
2017-12-05T23:27:40.853Z,83.90
2017-12-05T23:30:08.652Z,82.80
2017-12-05T23:32:36.309Z,84.40
2017-12-05T23:35:04.690Z,83.70
2017-12-05T23:37:33.192Z,84.00
2017-12-05T23:40:01.674Z,85.00
2017-12-05T23:42:29.887Z,84.80
2017-12-05T23:44:57.564Z,81.80
2017-12-05T23:47:25.222Z,83.00
2017-12-05T23:49:53.297Z,84.40
2017-12-05T23:52:20.981Z,82.90
2017-12-05T23:54:49.430Z,83.00
2017-12-05T23:57:17.091Z,83.00
2017-12-05T23:59:44.726Z,83.50
